createdAt,value
2022-11-28T00:01:09.315Z,6.38
2022-11-28T00:04:34.511Z,6.38
2022-11-28T00:07:59.774Z,6.39
2022-11-28T00:11:24.935Z,6.43
2022-11-28T00:14:50.242Z,6.5
2022-11-28T00:18:15.326Z,6.54
2022-11-28T00:21:40.535Z,6.55
2022-11-28T00:25:05.740Z,6.58
2022-11-28T00:28:30.950Z,6.59
2022-11-28T00:31:56.347Z,6.6
2022-11-28T00:35:21.354Z,6.56
2022-11-28T00:38:46.567Z,6.52
2022-11-28T00:42:11.764Z,6.44
2022-11-28T00:45:36.991Z,6.4
2022-11-28T00:49:02.286Z,6.38
2022-11-28T00:52:27.377Z,6.39
2022-11-28T00:55:52.565Z,6.39
2022-11-28T00:59:17.770Z,6.34
2022-11-28T01:02:43.029Z,6.35
2022-11-28T01:06:08.293Z,6.38
2022-11-28T01:09:33.376Z,6.43
2022-11-28T01:12:58.581Z,6.49
2022-11-28T01:16:23.893Z,6.54
2022-11-28T01:19:48.988Z,6.61
2022-11-28T01:23:14.302Z,6.67
2022-11-28T01:26:39.403Z,6.71
2022-11-28T01:30:04.579Z,6.71
2022-11-28T01:33:29.796Z,6.68
2022-11-28T01:36:55.040Z,6.64
2022-11-28T01:40:20.343Z,6.59
2022-11-28T01:43:45.428Z,6.55
2022-11-28T01:47:10.743Z,6.5
2022-11-28T01:50:35.837Z,6.46
2022-11-28T01:54:01.029Z,6.47
2022-11-28T01:57:26.377Z,6.46
2022-11-28T02:00:51.559Z,6.42
2022-11-28T02:04:16.645Z,6.44
2022-11-28T02:07:41.890Z,6.47
2022-11-28T02:11:07.057Z,6.49
2022-11-28T02:14:32.388Z,6.49
2022-11-28T02:17:57.478Z,6.48
2022-11-28T02:21:22.688Z,6.5
2022-11-28T02:24:47.881Z,6.53
2022-11-28T02:28:13.085Z,6.53
2022-11-28T02:31:38.469Z,6.53
2022-11-28T02:35:03.524Z,6.48
2022-11-28T02:38:28.753Z,6.45
2022-11-28T02:41:53.983Z,6.39
2022-11-28T02:45:19.221Z,6.3
2022-11-28T02:48:44.575Z,6.19
2022-11-28T02:52:09.662Z,6.08
2022-11-28T02:55:34.899Z,6.05
2022-11-28T02:59:00.100Z,6.01
2022-11-28T03:02:25.362Z,5.95
2022-11-28T03:05:50.645Z,5.89
2022-11-28T03:09:15.730Z,5.85
2022-11-28T03:12:40.979Z,5.87
2022-11-28T03:16:06.241Z,5.93
2022-11-28T03:19:31.408Z,6.02
2022-11-28T03:22:56.732Z,6.07
2022-11-28T03:26:21.830Z,6.14
2022-11-28T03:29:47.040Z,6.24
2022-11-28T03:33:12.234Z,6.33
2022-11-28T03:36:37.420Z,6.36
2022-11-28T03:40:02.775Z,6.39
2022-11-28T03:43:27.867Z,6.39
2022-11-28T03:46:53.153Z,6.39
2022-11-28T03:50:18.291Z,6.35
2022-11-28T03:53:43.488Z,6.31
2022-11-28T03:57:08.807Z,6.22
2022-11-28T04:00:33.925Z,6.16
2022-11-28T04:03:59.155Z,6.09
2022-11-28T04:07:24.455Z,6.05
2022-11-28T04:10:49.605Z,6.05
2022-11-28T04:14:14.939Z,6.05
2022-11-28T04:17:40.027Z,6.01
2022-11-28T04:21:05.231Z,6.02
2022-11-28T04:24:30.469Z,6.04
2022-11-28T04:27:55.708Z,6.03
2022-11-28T04:31:21.042Z,6.02
2022-11-28T04:34:46.124Z,6.04
2022-11-28T04:38:11.363Z,6.05
2022-11-28T04:41:36.593Z,6.03
2022-11-28T04:45:01.925Z,5.99
2022-11-28T04:48:31.261Z,5.95
2022-11-28T04:51:53.056Z,6.02
2022-11-28T04:55:18.293Z,6.12
2022-11-28T04:58:46.603Z,6.21
2022-11-28T05:02:12.045Z,6.27
2022-11-28T05:05:37.323Z,6.34
2022-11-28T05:09:02.424Z,6.36
2022-11-28T05:12:27.636Z,6.4
2022-11-28T05:15:52.846Z,6.44
2022-11-28T05:19:18.120Z,6.51
2022-11-28T05:22:43.447Z,6.5
2022-11-28T05:26:08.584Z,6.45
2022-11-28T05:29:33.815Z,6.43
2022-11-28T05:32:59.063Z,6.41
2022-11-28T05:36:24.295Z,6.4
2022-11-28T05:39:49.631Z,6.38
2022-11-28T05:43:14.758Z,6.38
2022-11-28T05:46:39.960Z,6.4
2022-11-28T05:50:05.184Z,6.42
2022-11-28T05:53:30.376Z,6.45
2022-11-28T05:56:55.688Z,6.52
2022-11-28T06:00:20.771Z,6.56
2022-11-28T06:03:45.973Z,6.65
2022-11-28T06:07:11.195Z,6.74
2022-11-28T06:10:36.382Z,6.77
2022-11-28T06:14:01.718Z,6.74
2022-11-28T06:17:26.845Z,6.76
2022-11-28T06:20:52.070Z,6.74
2022-11-28T06:24:17.301Z,6.73
2022-11-28T06:27:42.507Z,6.65
2022-11-28T06:31:07.811Z,6.62
2022-11-28T06:34:32.893Z,6.6
2022-11-28T06:37:58.123Z,6.64
2022-11-28T06:41:23.330Z,6.72
2022-11-28T06:44:48.522Z,6.79
2022-11-28T06:48:13.882Z,6.79
2022-11-28T06:51:38.955Z,6.77
2022-11-28T06:54:46.458Z,6.06
2022-11-28T06:58:11.683Z,6.82
2022-11-28T07:01:37.003Z,6.77
2022-11-28T07:05:02.282Z,6.7
2022-11-28T07:08:27.425Z,6.66
2022-11-28T07:11:52.550Z,6.62
2022-11-28T07:15:17.748Z,6.58
2022-11-28T07:18:43.000Z,6.53
2022-11-28T07:22:09.018Z,6.46
2022-11-28T07:26:07.302Z,5.76
2022-11-28T07:29:32.520Z,6.43
2022-11-28T07:32:57.763Z,6.37
2022-11-28T07:36:22.985Z,6.31
2022-11-28T07:39:48.326Z,6.28
2022-11-28T07:43:13.852Z,6.28
2022-11-28T07:46:39.087Z,6.22
2022-11-28T07:50:04.279Z,6.13
2022-11-28T07:53:29.510Z,6.04
2022-11-28T07:57:12.200Z,6.06
2022-11-28T08:00:19.949Z,6.05
2022-11-28T08:03:45.184Z,6.04
2022-11-28T08:07:10.422Z,6.15
2022-11-28T08:10:35.655Z,6.29
2022-11-28T08:14:00.915Z,6.36
2022-11-28T08:17:26.137Z,6.38
2022-11-28T08:20:51.383Z,6.44
2022-11-28T08:24:16.638Z,6.54
2022-11-28T08:27:41.862Z,6.54
2022-11-28T08:31:07.135Z,6.6
2022-11-28T08:34:32.330Z,6.66
2022-11-28T08:38:01.563Z,6.74
2022-11-28T08:41:22.775Z,6.8
2022-11-28T08:44:48.005Z,6.82
2022-11-28T08:48:13.291Z,6.8
2022-11-28T08:51:38.519Z,6.73
2022-11-28T08:55:03.782Z,6.81
2022-11-28T08:58:29.014Z,6.93
2022-11-28T09:01:54.314Z,7.07
2022-11-28T09:05:19.549Z,7.19
2022-11-28T09:08:44.768Z,7.29
2022-11-28T09:12:10.009Z,7.37
2022-11-28T09:15:35.235Z,7.33
2022-11-28T09:19:00.458Z,7.31
2022-11-28T09:22:25.743Z,7.27
2022-11-28T09:25:50.940Z,7.27
2022-11-28T09:29:16.158Z,7.25
2022-11-28T09:32:41.390Z,7.25
2022-11-28T09:36:06.629Z,7.36
2022-11-28T09:39:43.844Z,7.47
2022-11-28T09:42:57.063Z,7.57
2022-11-28T09:46:22.321Z,7.67
2022-11-28T09:49:47.736Z,7.8
2022-11-28T09:53:12.738Z,7.89
2022-11-28T09:56:37.967Z,7.96
2022-11-28T10:00:03.161Z,7.97
2022-11-28T10:03:28.422Z,8
2022-11-28T10:06:53.618Z,8.07
2022-11-28T10:10:18.827Z,8.06
2022-11-28T10:14:06.391Z,8.08
2022-11-28T10:17:09.321Z,8.11
2022-11-28T10:20:34.544Z,8.09
2022-11-28T10:23:59.791Z,8.04
2022-11-28T10:27:26.988Z,8.02
2022-11-28T10:30:50.376Z,8.09
2022-11-28T10:34:15.472Z,8.13
2022-11-28T10:37:40.709Z,8.2
2022-11-28T10:41:05.956Z,8.2
2022-11-28T10:44:31.205Z,8.17
2022-11-28T10:47:56.487Z,8.06
2022-11-28T10:51:21.682Z,8.05
2022-11-28T10:54:46.921Z,8.07
2022-11-28T10:58:12.161Z,8.18
2022-11-28T11:01:37.501Z,8.23
2022-11-28T11:05:02.720Z,8.24
2022-11-28T11:08:27.927Z,8.28
2022-11-28T11:11:53.069Z,8.32
2022-11-28T11:15:18.272Z,8.4
2022-11-28T11:18:43.501Z,8.51
2022-11-28T11:22:09.232Z,8.56
2022-11-28T11:25:35.285Z,8.62
2022-11-28T11:29:00.876Z,8.63
2022-11-28T11:32:26.091Z,8.67
2022-11-28T11:35:51.323Z,8.63
2022-11-28T11:39:16.567Z,8.58
2022-11-28T11:42:41.782Z,8.52
2022-11-28T11:46:07.082Z,8.41
2022-11-28T11:49:32.255Z,8.3
2022-11-28T11:52:57.483Z,8.26
2022-11-28T11:56:22.762Z,8.22
2022-11-28T11:59:47.938Z,8.14
2022-11-28T12:03:13.267Z,8.13
2022-11-28T12:06:38.379Z,8.09
2022-11-28T12:10:04.829Z,8.04
2022-11-28T12:13:28.846Z,7.97
2022-11-28T12:16:54.057Z,7.98
2022-11-28T12:20:19.287Z,7.98
2022-11-28T12:23:44.516Z,7.92
2022-11-28T12:27:09.729Z,7.92
2022-11-28T12:30:35.305Z,7.96
2022-11-28T12:34:00.176Z,7.98
2022-11-28T12:37:29.511Z,8.01
2022-11-28T12:40:50.625Z,8.1
2022-11-28T12:44:15.844Z,8.14
2022-11-28T12:47:41.141Z,8.17
2022-11-28T12:51:06.267Z,8.23
2022-11-28T12:54:31.508Z,8.28
2022-11-28T12:57:56.740Z,8.3
2022-11-28T13:01:22.070Z,8.28
2022-11-28T13:04:47.591Z,8.22
2022-11-28T13:08:12.426Z,8.22
2022-11-28T13:11:37.648Z,8.23
2022-11-28T13:15:02.872Z,8.29
2022-11-28T13:18:28.109Z,8.38
2022-11-28T13:21:53.347Z,8.46
2022-11-28T13:25:18.718Z,8.57
2022-11-28T13:28:44.011Z,8.66
2022-11-28T13:32:09.336Z,8.63
2022-11-28T13:35:34.653Z,8.56
2022-11-28T13:39:12.187Z,8.44
2022-11-28T13:45:52.518Z,8.38
2022-11-28T13:49:20.128Z,8.34
2022-11-28T13:52:41.183Z,8.27
2022-11-28T13:56:06.558Z,8.22
2022-11-28T13:59:31.804Z,8.23
2022-11-28T14:02:57.214Z,8.26
2022-11-28T14:06:22.516Z,8.24
2022-11-28T14:09:47.826Z,8.27
2022-11-28T14:13:13.178Z,8.24
2022-11-28T14:16:38.450Z,8.1
2022-11-28T14:20:03.693Z,7.99
2022-11-28T14:23:29.035Z,7.94
2022-11-28T14:26:54.344Z,7.92
2022-11-28T14:30:19.660Z,7.94
2022-11-28T15:03:59.533Z,5.98
2022-11-28T15:07:24.788Z,6.9
2022-11-28T15:10:50.043Z,7.11
2022-11-28T15:14:15.367Z,7.29
2022-11-28T15:17:40.685Z,7.47
2022-11-28T15:21:06.022Z,7.62
2022-11-28T15:24:31.314Z,7.74
2022-11-28T15:27:56.703Z,7.84
2022-11-28T15:31:22.003Z,7.92
2022-11-28T15:34:47.251Z,7.99
2022-11-28T15:38:12.664Z,8.06
2022-11-28T15:41:37.910Z,8.09
2022-11-28T15:45:03.254Z,8.12
2022-11-28T15:48:28.582Z,8.16
2022-11-28T15:51:53.963Z,8.17
2022-11-28T15:55:19.315Z,8.19
2022-11-28T15:58:44.644Z,8.19
2022-11-28T16:02:09.941Z,8.2
2022-11-28T16:05:35.202Z,8.25
2022-11-28T16:09:00.501Z,8.27
2022-11-28T16:12:25.905Z,8.32
2022-11-28T16:15:51.178Z,8.35
2022-11-28T16:19:16.496Z,8.36
2022-11-28T16:22:41.753Z,8.37
2022-11-28T16:26:07.046Z,8.35
2022-11-28T16:29:34.791Z,8.35
2022-11-28T16:32:57.709Z,8.35
2022-11-28T16:36:22.962Z,8.36
2022-11-28T16:39:48.293Z,8.34
2022-11-28T16:43:13.616Z,8.32
2022-11-28T16:46:38.962Z,8.34
2022-11-28T16:50:04.223Z,8.34
2022-11-28T16:53:29.507Z,8.34
2022-11-28T16:56:54.731Z,8.31
2022-11-28T17:00:19.977Z,8.28
2022-11-28T17:03:45.415Z,8.28
2022-11-28T17:07:10.685Z,8.29
2022-11-28T17:10:36.019Z,8.28
2022-11-28T17:14:02.635Z,8.27
2022-11-28T17:17:26.627Z,8.29
2022-11-28T17:20:51.922Z,8.33
2022-11-28T17:24:17.194Z,8.36
2022-11-28T17:27:42.461Z,8.38
2022-11-28T17:31:07.773Z,8.35
2022-11-28T17:34:32.987Z,8.39
2022-11-28T17:37:58.332Z,8.38
2022-11-28T17:41:23.583Z,8.35
2022-11-28T17:44:48.939Z,8.34
2022-11-28T17:48:14.276Z,8.32
2022-11-28T17:51:39.674Z,8.32
2022-11-28T17:55:07.122Z,8.31
2022-11-28T17:58:30.361Z,8.32
2022-11-28T18:01:55.721Z,8.3
2022-11-28T18:05:21.031Z,8.3
2022-11-28T18:08:46.512Z,8.27
2022-11-28T18:12:11.922Z,8.24
2022-11-28T18:15:37.107Z,8.25
2022-11-28T18:19:02.436Z,8.23
2022-11-28T18:22:27.761Z,8.26
2022-11-28T18:25:53.128Z,8.28
2022-11-28T18:29:18.538Z,8.28
2022-11-28T18:32:43.845Z,8.3
2022-11-28T18:36:09.132Z,8.3
2022-11-28T18:39:34.443Z,8.27
2022-11-28T18:42:59.837Z,8.25
2022-11-28T18:46:25.121Z,8.24
2022-11-28T18:49:50.371Z,8.26
2022-11-28T18:53:15.658Z,8.26
2022-11-28T18:56:40.989Z,8.27
2022-11-28T19:00:06.271Z,8.28
2022-11-28T19:03:31.581Z,8.28
2022-11-28T19:06:56.888Z,8.27
2022-11-28T19:10:22.212Z,8.21
2022-11-28T19:13:47.530Z,8.12
2022-11-28T19:17:12.847Z,8.06
2022-11-28T19:20:38.188Z,7.99
2022-11-28T19:24:03.446Z,7.95
2022-11-28T19:27:28.728Z,7.9
2022-11-28T19:30:54.044Z,7.9
2022-11-28T19:34:19.389Z,7.89
2022-11-28T19:37:44.718Z,7.87
2022-11-28T19:41:10.017Z,7.87
2022-11-28T19:44:35.357Z,7.86
2022-11-28T19:48:00.663Z,7.84
2022-11-28T19:51:25.982Z,7.81
2022-11-28T19:54:51.356Z,7.78
2022-11-28T19:58:16.629Z,7.79
2022-11-28T20:01:41.984Z,7.75
2022-11-28T20:05:07.280Z,7.66
2022-11-28T20:08:32.629Z,7.59
2022-11-28T20:11:57.933Z,7.54
2022-11-28T20:15:23.217Z,7.51
2022-11-28T20:18:48.632Z,7.49
2022-11-28T20:22:13.876Z,7.47
2022-11-28T20:25:39.137Z,7.44
2022-11-28T20:29:04.588Z,7.47
2022-11-28T20:32:29.813Z,7.48
2022-11-28T20:35:59.690Z,7.48
2022-11-28T20:39:21.382Z,7.45
2022-11-28T20:42:46.604Z,7.46
2022-11-28T20:46:11.900Z,7.44
2022-11-28T20:49:37.037Z,7.42
2022-11-28T20:53:02.255Z,7.42
2022-11-28T20:56:27.462Z,7.42
2022-11-28T20:59:52.666Z,7.44
2022-11-28T21:03:17.916Z,7.42
2022-11-28T21:06:43.094Z,7.42
2022-11-28T21:10:08.302Z,7.39
2022-11-28T21:13:33.520Z,7.35
2022-11-28T21:16:58.770Z,7.36
2022-11-28T21:20:23.979Z,7.35
2022-11-28T21:23:49.158Z,7.39
2022-11-28T21:27:14.361Z,7.39
2022-11-28T21:30:39.569Z,7.43
2022-11-28T21:34:04.812Z,7.47
2022-11-28T21:37:30.080Z,7.5
2022-11-28T21:40:55.280Z,7.51
2022-11-28T21:44:20.490Z,7.49
2022-11-28T21:47:45.696Z,7.45
2022-11-28T21:51:10.909Z,7.46
2022-11-28T21:54:36.161Z,7.47
2022-11-28T21:58:01.362Z,7.46
2022-11-28T22:01:26.660Z,7.49
2022-11-28T22:04:51.829Z,7.5
2022-11-28T22:08:17.060Z,7.54
2022-11-28T22:11:42.281Z,7.51
2022-11-28T22:15:07.486Z,7.49
2022-11-28T22:18:32.708Z,7.5
2022-11-28T22:21:57.939Z,7.49
2022-11-28T22:25:23.182Z,7.5
2022-11-28T22:28:53.317Z,7.47
2022-11-28T22:32:13.639Z,7.48
2022-11-28T22:35:38.833Z,7.46
2022-11-28T22:39:04.067Z,7.45
2022-11-28T22:42:29.276Z,7.43
2022-11-28T22:45:54.551Z,7.46
2022-11-28T22:49:19.699Z,7.45
2022-11-28T22:52:44.933Z,7.46
2022-11-28T22:56:10.143Z,7.43
2022-11-28T22:59:35.358Z,7.4
2022-11-28T23:03:00.828Z,7.38
2022-11-28T23:06:25.792Z,7.37
2022-11-28T23:09:51.013Z,7.39
2022-11-28T23:13:16.239Z,7.36
2022-11-28T23:16:41.515Z,7.34
2022-11-28T23:20:06.704Z,7.34
2022-11-28T23:23:31.928Z,7.35
2022-11-28T23:26:57.137Z,7.35
2022-11-28T23:30:22.348Z,7.36
2022-11-28T23:33:47.559Z,7.37
2022-11-28T23:37:12.805Z,7.39
2022-11-28T23:40:37.986Z,7.43
2022-11-28T23:44:03.196Z,7.48
2022-11-28T23:47:28.422Z,7.51
2022-11-28T23:50:53.661Z,7.54
2022-11-28T23:54:18.903Z,7.58
2022-11-28T23:57:44.097Z,7.6
